Time,TemperatureF,DewpointF,PressureIn,WindDirection,WindDirectionDegrees,WindSpeedMPH,WindSpeedGustMPH,Humidity,HourlyPrecipIn,Conditions,Clouds,dailyrainin,SoftwareType,DateUTC
2013-12-08 00:29:00,31.6,25.5,30.55,NNE,27,0.0,3.0,78,0.00,,CLR,0.00,VWS V14.01,2013-12-08 05:29:00,
2013-12-08 00:59:00,31.8,24.8,30.54,North,7,0.0,5.0,75,0.00,,CLR,0.00,VWS V14.01,2013-12-08 05:59:00,
2013-12-08 01:29:00,31.8,24.8,30.54,East,80,0.0,6.0,75,0.00,,CLR,0.00,VWS V14.01,2013-12-08 06:29:00,
2013-12-08 01:59:00,31.5,24.5,30.53,SE,131,0.0,7.0,75,0.00,,CLR,0.00,VWS V14.01,2013-12-08 06:59:00,
2013-12-08 02:29:00,31.5,23.2,30.54,East,95,3.0,8.0,71,0.00,,SCT070,0.00,VWS V14.01,2013-12-08 07:29:00,
2013-12-08 02:59:00,31.5,22.5,30.53,NE,41,1.0,8.0,69,0.00,,SCT070,0.00,VWS V14.01,2013-12-08 07:59:00,
2013-12-08 03:29:00,31.3,22.3,30.53,ENE,73,2.0,7.0,69,0.00,,OVC070,0.00,VWS V14.01,2013-12-08 08:29:00,
2013-12-08 03:59:00,31.3,22.3,30.53,North,7,0.0,6.0,69,0.00,,OVC070,0.00,VWS V14.01,2013-12-08 08:59:00,
2013-12-08 04:29:00,31.3,22.0,30.53,NE,35,1.0,7.0,68,0.00,,OVC065,0.00,VWS V14.01,2013-12-08 09:29:00,
2013-12-08 04:59:00,31.3,21.3,30.54,North,354,2.0,8.0,66,0.00,,OVC065,0.00,VWS V14.01,2013-12-08 09:59:00,
2013-12-08 05:29:00,31.2,21.2,30.54,NE,41,3.0,8.0,66,0.00,,OVC060,0.00,VWS V14.01,2013-12-08 10:29:00,
2013-12-08 05:59:00,31.0,22.0,30.54,East,88,0.0,8.0,69,0.00,,OVC060,0.00,VWS V14.01,2013-12-08 10:59:00,
2013-12-08 06:29:00,30.7,23.4,30.55,NNE,25,0.0,9.0,74,0.00,,OVC060,0.00,VWS V14.01,2013-12-08 11:29:00,
2013-12-08 06:59:00,30.1,22.5,30.56,NE,42,2.0,8.0,73,0.00,,OVC060,0.00,VWS V14.01,2013-12-08 11:59:00,
2013-12-08 07:29:00,30.0,24.6,30.56,ENE,64,5.0,8.0,80,0.00,,OVC055,0.00,VWS V14.01,2013-12-08 12:29:00,
2013-12-08 07:59:00,29.3,24.2,30.55,ENE,73,0.0,8.0,81,0.00,,OVC055,0.00,VWS V14.01,2013-12-08 12:59:00,
2013-12-08 08:29:00,29.3,24.2,30.53,North,354,2.0,7.0,81,0.00,,OVC055,0.00,VWS V14.01,2013-12-08 13:29:00,
2013-12-08 08:59:00,29.3,25.1,30.54,NNE,31,1.0,5.0,84,0.01,,OVC050,0.01,VWS V14.01,2013-12-08 13:59:00,
2013-12-08 09:29:00,28.8,24.6,30.56,NNE,27,0.0,7.0,84,0.01,,OVC048,0.01,VWS V14.01,2013-12-08 14:29:00,
2013-12-08 09:59:00,29.0,25.6,30.56,NNE,32,3.0,7.0,87,0.02,,OVC048,0.02,VWS V14.01,2013-12-08 14:59:00,
2013-12-08 10:29:00,28.8,25.7,30.56,NNE,24,6.0,6.0,88,0.03,,OVC045,0.04,VWS V14.01,2013-12-08 15:29:00,
2013-12-08 10:59:00,28.8,26.0,30.55,NNE,31,1.0,7.0,89,0.04,,OVC045,0.05,VWS V14.01,2013-12-08 15:59:00,
2013-12-08 11:29:00,28.8,26.2,30.56,NNE,24,0.0,6.0,90,0.03,,OVC055,0.05,VWS V14.01,2013-12-08 16:29:00,
2013-12-08 11:59:00,28.7,26.4,30.55,NNE,17,1.0,6.0,91,0.01,,OVC055,0.05,VWS V14.01,2013-12-08 16:59:00,
2013-12-08 12:29:00,28.5,26.7,30.52,NNE,32,0.0,6.0,93,0.00,,,0.05,VWS V14.01,2013-12-08 17:29:00,
2013-12-08 12:59:00,28.4,26.6,30.49,NNE,21,3.0,5.0,93,0.00,,,0.05,VWS V14.01,2013-12-08 17:59:00,
2013-12-08 13:29:00,28.4,26.6,30.49,NNE,21,0.0,4.0,93,0.00,,,0.05,VWS V14.01,2013-12-08 18:29:00,
2013-12-08 13:59:00,28.4,26.6,30.48,NNE,21,0.0,5.0,93,0.00,,,0.05,VWS V14.01,2013-12-08 18:59:00,
2013-12-08 14:29:00,28.5,27.0,30.47,North,8,0.0,5.0,94,0.00,,OVC026,0.05,VWS V14.01,2013-12-08 19:29:00,
2013-12-08 14:59:00,28.7,27.2,30.47,North,10,0.0,3.0,94,0.00,,OVC026,0.05,VWS V14.01,2013-12-08 19:59:00,
2013-12-08 15:29:00,28.5,27.0,30.46,North,10,0.0,3.0,94,0.00,,,0.05,VWS V14.01,2013-12-08 20:29:00,
2013-12-08 15:59:00,28.5,27.0,30.45,North,11,0.0,2.0,94,0.00,,,0.05,VWS V14.01,2013-12-08 20:59:00,
2013-12-08 16:29:00,28.7,27.2,30.46,NNE,16,0.0,3.0,94,0.00,,,0.05,VWS V14.01,2013-12-08 21:29:00,
2013-12-08 16:59:00,28.8,27.5,30.45,NNE,17,0.0,3.0,95,0.00,,,0.05,VWS V14.01,2013-12-08 21:59:00,
2013-12-08 17:29:00,28.8,27.5,30.44,NNE,17,0.0,2.0,95,0.00,,,0.05,VWS V14.01,2013-12-08 22:29:00,
2013-12-08 17:59:00,29.1,27.9,30.43,NNE,17,1.0,1.0,95,0.00,,,0.05,VWS V14.01,2013-12-08 22:59:00,
2013-12-08 18:29:00,29.0,27.8,30.43,NNE,18,0.0,3.0,95,0.00,,,0.05,VWS V14.01,2013-12-08 23:29:00,
2013-12-08 18:59:00,29.1,28.1,30.41,NNE,18,0.0,2.0,96,0.00,,,0.05,VWS V14.01,2013-12-08 23:59:00,
2013-12-08 19:29:00,29.1,28.1,30.42,NNE,18,0.0,1.0,96,0.00,,,0.05,VWS V14.01,2013-12-09 00:29:00,
2013-12-08 19:59:00,29.4,28.7,30.40,NNE,18,0.0,2.0,97,0.00,,,0.05,VWS V14.01,2013-12-09 00:59:00,
2013-12-08 20:29:00,29.4,28.7,30.41,NNE,18,0.0,2.0,97,0.00,,,0.05,VWS V14.01,2013-12-09 01:29:00,
2013-12-08 20:59:00,29.8,29.0,30.39,North,359,0.0,2.0,97,0.00,,,0.05,VWS V14.01,2013-12-09 01:59:00,
2013-12-08 21:29:00,30.4,29.6,30.39,North,359,0.0,0.0,97,0.00,,FZRA,0.05,VWS V14.01,2013-12-09 02:29:00,
2013-12-08 21:59:00,30.9,30.1,30.37,North,359,0.0,0.0,97,0.00,,FZRA,0.05,VWS V14.01,2013-12-09 02:59:00,
2013-12-08 22:29:00,31.2,30.5,30.36,North,359,0.0,0.0,97,0.00,,,0.05,VWS V14.01,2013-12-09 03:29:00,
2013-12-08 22:59:00,31.3,30.5,30.34,North,359,0.0,0.0,97,0.00,,,0.05,VWS V14.01,2013-12-09 03:59:00,
2013-12-08 23:29:00,31.5,30.8,30.33,North,359,0.0,0.0,97,0.00,,,0.05,VWS V14.01,2013-12-09 04:29:00,
2013-12-08 23:59:00,31.8,31.0,30.34,North,359,0.0,0.0,97,0.00,,,0.00,VWS V14.01,2013-12-09 04:59:00,